Time;durP1;ratioP1;P1;durP2;ratioP2;P2;SDS_P1;SDS_P2;PMS_P1;PMS_P2;Temp;Humidity;BMP_temperature;BMP_pressure;BME280_temperature;BME280_humidity;BME280_pressure;Samples;Min_cycle;Max_cycle;Signal;HPM_P1;HPM_P2
2021/11/30 00:02:00;;;;;;;6.70;5.77;;;2.00;99.90;;;;;;7393642;19;20468;-81
2021/11/30 00:04:29;;;;;;;7.35;5.22;;;2.00;99.90;;;;;;7391671;19;20304;-81
2021/11/30 00:06:55;;;;;;;7.40;6.07;;;2.00;99.90;;;;;;7395620;19;20332;-81
2021/11/30 00:12:09;;;;;;;6.67;6.00;;;1.90;99.90;;;;;;7296934;19;2004687;-84
2021/11/30 00:14:36;;;;;;;7.10;6.18;;;2.00;99.90;;;;;;7398373;19;20324;-80
2021/11/30 00:17:06;;;;;;;5.73;5.23;;;2.00;99.90;;;;;;7407107;19;20316;-81
2021/11/30 00:19:41;;;;;;;6.40;5.80;;;2.00;99.90;;;;;;7398561;19;20309;-81
2021/11/30 00:22:08;;;;;;;5.63;5.13;;;2.00;99.90;;;;;;7402228;19;20325;-81
2021/11/30 00:24:35;;;;;;;5.93;5.40;;;2.00;99.90;;;;;;7396719;19;20366;-80
2021/11/30 00:27:01;;;;;;;6.10;5.53;;;2.00;99.90;;;;;;7402235;19;20328;-85
2021/11/30 00:29:28;;;;;;;6.93;5.70;;;2.00;99.90;;;;;;7401990;19;20341;-82
2021/11/30 00:31:54;;;;;;;5.75;5.22;;;1.90;99.90;;;;;;7390188;19;20308;-81
2021/11/30 00:34:20;;;;;;;5.43;4.90;;;2.00;99.90;;;;;;7394640;19;20704;-81
2021/11/30 00:36:45;;;;;;;6.03;5.50;;;2.00;99.90;;;;;;7396592;19;20300;-82
2021/11/30 00:39:11;;;;;;;5.90;5.30;;;2.00;99.90;;;;;;7373682;19;20312;-82
2021/11/30 00:41:38;;;;;;;6.07;5.37;;;2.00;99.90;;;;;;7397833;19;20369;-84
2021/11/30 00:44:03;;;;;;;5.35;4.85;;;2.00;99.90;;;;;;7395914;19;20313;-81
2021/11/30 00:46:34;;;;;;;5.10;4.60;;;2.00;99.90;;;;;;7372767;19;20428;-80
2021/11/30 00:49:03;;;;;;;4.35;3.95;;;2.00;99.90;;;;;;7393414;19;20906;-82
2021/11/30 00:51:28;;;;;;;4.53;4.10;;;2.00;99.90;;;;;;7392954;19;20318;-81
2021/11/30 00:53:54;;;;;;;5.10;3.93;;;2.00;99.90;;;;;;7386287;19;20982;-81
2021/11/30 00:56:20;;;;;;;3.33;3.10;;;2.00;99.90;;;;;;7390790;19;20762;-81
2021/11/30 00:58:46;;;;;;;3.10;2.90;;;2.00;99.90;;;;;;7395985;19;20315;-82
2021/11/30 01:01:11;;;;;;;4.13;3.72;;;1.90;99.90;;;;;;7393151;19;20309;-82
2021/11/30 01:03:38;;;;;;;3.37;3.17;;;1.90;99.90;;;;;;7393652;19;20314;-80
2021/11/30 01:06:09;;;;;;;3.50;3.20;;;1.90;99.90;;;;;;7394129;19;20337;-80
2021/11/30 01:08:35;;;;;;;3.65;3.20;;;1.80;99.90;;;;;;7392608;19;20955;-80
2021/11/30 01:11:22;;;;;;;4.22;3.83;;;1.80;99.90;;;;;;7392211;19;20350;-81
2021/11/30 01:13:50;;;;;;;3.90;3.60;;;1.80;99.90;;;;;;7290808;19;2004340;-80
2021/11/30 01:16:24;;;;;;;3.75;3.40;;;1.80;99.90;;;;;;7387626;19;20323;-81
2021/11/30 01:18:53;;;;;;;3.97;3.58;;;1.80;99.90;;;;;;7383772;19;20309;-82
2021/11/30 01:21:22;;;;;;;3.53;3.22;;;1.90;99.90;;;;;;7391364;19;20329;-79
2021/11/30 01:23:48;;;;;;;3.90;3.60;;;1.80;99.90;;;;;;7393247;19;20352;-82
2021/11/30 01:26:13;;;;;;;3.85;3.42;;;1.80;99.90;;;;;;7395787;19;20309;-79
2021/11/30 01:28:39;;;;;;;3.57;3.27;;;1.80;99.90;;;;;;7376139;19;20368;-82
2021/11/30 01:31:04;;;;;;;3.97;3.47;;;1.80;99.90;;;;;;7387974;19;20364;-82
2021/11/30 01:33:30;;;;;;;4.63;4.22;;;1.80;99.90;;;;;;7394504;19;20371;-82
2021/11/30 01:35:56;;;;;;;4.27;3.87;;;1.80;99.90;;;;;;7399042;19;20361;-80
2021/11/30 01:38:23;;;;;;;4.85;4.13;;;1.90;99.90;;;;;;7397589;19;20720;-80
2021/11/30 01:40:50;;;;;;;4.50;4.10;;;1.90;99.90;;;;;;7395447;19;20336;-80
2021/11/30 01:43:20;;;;;;;5.43;4.57;;;1.90;99.90;;;;;;7390110;19;20412;-83
2021/11/30 01:45:57;;;;;;;4.82;4.32;;;1.90;99.90;;;;;;7393103;19;20347;-82
2021/11/30 01:50:48;;;;;;;4.97;4.47;;;1.80;99.90;;;;;;7394307;19;20307;-81
2021/11/30 01:53:14;;;;;;;7.43;5.45;;;1.70;99.90;;;;;;7392639;19;20859;-82
2021/11/30 01:55:43;;;;;;;5.57;5.07;;;1.70;99.90;;;;;;7393322;19;20333;-81
2021/11/30 01:58:09;;;;;;;5.65;5.15;;;1.70;99.90;;;;;;7396437;19;20303;-83
2021/11/30 02:00:36;;;;;;;5.28;4.78;;;1.70;99.90;;;;;;7394088;19;20337;-80
2021/11/30 02:03:05;;;;;;;6.88;5.88;;;1.60;99.90;;;;;;7394049;19;20312;-80
2021/11/30 02:05:35;;;;;;;6.05;5.32;;;1.70;99.90;;;;;;7388906;19;20360;-81
2021/11/30 02:08:01;;;;;;;5.95;5.40;;;1.70;99.90;;;;;;7393336;19;20340;-80
2021/11/30 02:10:26;;;;;;;7.65;5.85;;;1.60;99.90;;;;;;7390086;19;20338;-80
2021/11/30 02:12:53;;;;;;;6.43;5.75;;;1.60;99.90;;;;;;7390816;19;20695;-81
2021/11/30 02:15:20;;;;;;;6.82;6.13;;;1.60;99.90;;;;;;7391174;19;20909;-83
2021/11/30 02:17:46;;;;;;;6.20;5.60;;;1.60;99.90;;;;;;7392228;19;20369;-81
2021/11/30 02:20:13;;;;;;;6.75;5.80;;;1.60;99.90;;;;;;7388921;19;20416;-81
2021/11/30 02:22:55;;;;;;;6.82;6.15;;;1.60;99.90;;;;;;7282401;19;2004440;-80
2021/11/30 02:25:22;;;;;;;7.10;6.25;;;1.60;99.90;;;;;;7387811;19;20348;-82
2021/11/30 02:27:47;;;;;;;6.70;6.00;;;1.60;99.90;;;;;;7393515;19;20461;-80
2021/11/30 02:30:13;;;;;;;6.80;6.10;;;1.60;99.90;;;;;;7390799;19;20872;-81
2021/11/30 02:32:39;;;;;;;7.70;6.90;;;1.50;99.90;;;;;;7393085;19;20331;-82
2021/11/30 02:35:05;;;;;;;6.97;6.27;;;1.50;99.90;;;;;;7390040;19;20360;-80
2021/11/30 02:37:38;;;;;;;7.22;6.53;;;1.50;99.90;;;;;;7392468;19;20329;-80
2021/11/30 02:40:04;;;;;;;7.20;6.50;;;1.50;99.90;;;;;;7385720;19;20342;-81
2021/11/30 02:42:30;;;;;;;7.38;6.05;;;1.40;99.90;;;;;;7387944;19;20830;-80
2021/11/30 02:44:55;;;;;;;6.43;5.83;;;1.40;99.90;;;;;;7390954;19;20309;-82
2021/11/30 02:47:23;;;;;;;8.48;6.78;;;1.30;99.90;;;;;;7392360;19;20333;-81
2021/11/30 02:49:49;;;;;;;7.95;6.93;;;1.30;99.90;;;;;;7388322;19;20301;-83
2021/11/30 02:52:18;;;;;;;8.87;7.87;;;1.30;99.90;;;;;;7395988;19;20319;-85
2021/11/30 02:54:46;;;;;;;7.53;6.75;;;1.30;99.90;;;;;;7380520;19;20320;-81
2021/11/30 02:57:12;;;;;;;8.63;7.72;;;1.30;99.90;;;;;;7395447;19;20350;-80
2021/11/30 02:59:41;;;;;;;9.73;8.00;;;1.20;99.90;;;;;;7392776;19;20395;-80
2021/11/30 03:02:12;;;;;;;9.00;8.13;;;1.20;99.90;;;;;;7388365;19;20855;-85
2021/11/30 03:04:39;;;;;;;11.55;8.68;;;1.20;99.90;;;;;;7388086;19;20348;-81
2021/11/30 03:07:11;;;;;;;9.52;8.43;;;1.20;99.90;;;;;;7389935;19;20336;-81
2021/11/30 03:09:40;;;;;;;12.02;9.38;;;1.20;99.90;;;;;;7388608;19;20348;-82
2021/11/30 03:12:06;;;;;;;9.77;8.65;;;1.20;99.90;;;;;;7389510;19;20416;-81
2021/11/30 03:14:34;;;;;;;9.10;8.23;;;1.20;99.90;;;;;;7385603;19;20313;-80
2021/11/30 03:17:00;;;;;;;10.90;9.63;;;1.20;99.90;;;;;;7381696;19;20895;-81
2021/11/30 03:19:27;;;;;;;10.17;9.10;;;1.10;99.90;;;;;;7391796;19;20459;-80
2021/11/30 03:21:53;;;;;;;11.25;10.10;;;1.10;99.90;;;;;;7387082;19;20321;-81
2021/11/30 03:24:20;;;;;;;10.68;9.68;;;1.10;99.90;;;;;;7386151;19;20591;-81
2021/11/30 03:26:46;;;;;;;10.57;9.47;;;1.10;99.90;;;;;;7378563;19;20351;-81
2021/11/30 03:29:13;;;;;;;11.73;10.27;;;1.10;99.90;;;;;;7388472;19;20341;-81
2021/11/30 03:34:14;;;;;;;10.83;9.73;;;1.20;99.90;;;;;;7386126;19;20312;-81
2021/11/30 03:36:41;;;;;;;12.60;10.75;;;1.20;99.90;;;;;;7387222;19;20404;-81
2021/11/30 03:39:11;;;;;;;12.73;10.77;;;1.20;99.90;;;;;;7388905;19;20320;-81
2021/11/30 03:41:37;;;;;;;12.18;10.07;;;1.20;99.90;;;;;;7393683;19;20297;-81
2021/11/30 03:44:04;;;;;;;12.13;10.77;;;1.20;99.90;;;;;;7392750;19;20353;-83
2021/11/30 03:46:31;;;;;;;11.80;10.47;;;1.30;99.90;;;;;;7386667;19;20317;-80
2021/11/30 03:48:58;;;;;;;11.90;10.40;;;1.30;99.90;;;;;;7388607;19;20297;-82
2021/11/30 03:51:25;;;;;;;10.38;9.25;;;1.30;99.90;;;;;;7382054;19;20328;-81
2021/11/30 03:53:52;;;;;;;11.70;10.48;;;1.40;99.90;;;;;;7379993;19;20313;-81
2021/11/30 03:56:18;;;;;;;10.95;9.52;;;1.30;99.90;;;;;;7388498;19;20306;-83
2021/11/30 03:58:43;;;;;;;10.00;9.00;;;1.40;99.90;;;;;;7357747;19;20341;-81
2021/11/30 04:01:09;;;;;;;10.60;9.50;;;1.40;99.90;;;;;;7389708;19;20308;-83
2021/11/30 04:03:35;;;;;;;11.15;9.18;;;1.40;99.90;;;;;;7387032;19;20735;-81
2021/11/30 04:06:02;;;;;;;9.57;8.57;;;1.40;99.90;;;;;;7386216;19;20380;-82
2021/11/30 04:08:33;;;;;;;8.70;7.82;;;1.40;99.90;;;;;;7390468;19;20309;-87
2021/11/30 04:10:59;;;;;;;9.10;8.15;;;1.40;99.90;;;;;;7401010;19;20312;-80
2021/11/30 04:13:30;;;;;;;9.20;8.30;;;1.40;99.90;;;;;;7396246;19;20313;-81
2021/11/30 04:16:00;;;;;;;10.10;8.77;;;1.40;99.90;;;;;;7394864;19;20337;-80
2021/11/30 04:18:26;;;;;;;8.60;7.32;;;1.40;99.90;;;;;;7393546;19;20305;-81
2021/11/30 04:20:53;;;;;;;7.75;7.00;;;1.40;99.90;;;;;;7387800;19;20312;-81
2021/11/30 04:23:38;;;;;;;10.05;7.40;;;1.40;99.90;;;;;;7287376;19;2004556;-81
2021/11/30 04:26:04;;;;;;;8.50;7.60;;;1.50;99.90;;;;;;7381591;19;20312;-81
2021/11/30 04:28:32;;;;;;;7.60;6.90;;;1.40;99.90;;;;;;7383183;19;20309;-80
2021/11/30 04:30:58;;;;;;;8.00;7.20;;;1.40;99.90;;;;;;7392233;19;20318;-81
2021/11/30 04:33:24;;;;;;;7.75;7.00;;;1.40;99.90;;;;;;7395567;19;20317;-81
2021/11/30 04:35:51;;;;;;;8.70;7.07;;;1.40;99.90;;;;;;7386800;19;20321;-82
2021/11/30 04:38:17;;;;;;;8.20;7.28;;;1.40;99.90;;;;;;7374878;19;20878;-80
2021/11/30 04:40:58;;;;;;;7.07;6.20;;;1.40;99.90;;;;;;7284597;19;2004837;-81
2021/11/30 04:43:32;;;;;;;7.53;6.70;;;1.40;99.90;;;;;;7372335;19;20312;-81
2021/11/30 04:46:06;;;;;;;7.95;6.55;;;1.40;99.90;;;;;;7379597;19;20325;-80
2021/11/30 04:48:33;;;;;;;6.63;6.03;;;1.40;99.90;;;;;;7386204;19;20301;-81
2021/11/30 04:51:02;;;;;;;6.63;5.93;;;1.40;99.90;;;;;;7390596;19;20309;-81
2021/11/30 04:53:36;;;;;;;6.70;6.10;;;1.40;99.90;;;;;;7394497;19;20336;-82
2021/11/30 04:56:03;;;;;;;7.60;6.80;;;1.40;99.90;;;;;;7388895;19;20305;-80
2021/11/30 04:58:30;;;;;;;6.60;5.88;;;1.30;99.90;;;;;;7387044;19;20655;-80
2021/11/30 05:01:18;;;;;;;5.90;5.32;;;1.40;99.90;;;;;;7364962;19;20373;-81
2021/11/30 05:03:47;;;;;;;6.60;5.97;;;1.30;99.90;;;;;;7385565;19;20301;-83
2021/11/30 05:06:13;;;;;;;7.40;5.60;;;1.30;99.90;;;;;;7391632;19;20304;-80
2021/11/30 05:08:40;;;;;;;6.20;5.40;;;1.30;99.90;;;;;;7390285;19;20313;-79
2021/11/30 05:11:06;;;;;;;6.10;5.50;;;1.30;99.90;;;;;;7386658;19;20319;-81
2021/11/30 05:13:33;;;;;;;7.03;5.25;;;1.30;99.90;;;;;;7392295;19;20337;-81
2021/11/30 05:16:04;;;;;;;6.78;5.78;;;1.30;99.90;;;;;;7388752;19;25643;-81
2021/11/30 05:18:32;;;;;;;7.60;5.32;;;1.30;99.90;;;;;;7370281;19;20349;-82
2021/11/30 05:20:59;;;;;;;5.47;4.70;;;1.40;99.90;;;;;;7350305;19;20713;-81
2021/11/30 05:23:28;;;;;;;8.23;5.50;;;1.40;99.90;;;;;;7376068;19;20404;-81
2021/11/30 05:26:12;;;;;;;5.00;4.53;;;1.40;99.90;;;;;;7341453;19;20359;-82
2021/11/30 05:28:39;;;;;;;6.68;5.93;;;1.40;99.90;;;;;;7397716;19;20308;-82
2021/11/30 05:31:06;;;;;;;5.27;4.73;;;1.40;99.90;;;;;;7389716;19;20687;-81
2021/11/30 05:33:51;;;;;;;5.28;4.78;;;1.40;99.90;;;;;;7389089;19;20341;-82
2021/11/30 05:36:23;;;;;;;5.50;4.70;;;1.40;99.90;;;;;;7391623;19;20339;-80
2021/11/30 05:38:51;;;;;;;5.60;4.65;;;1.40;99.90;;;;;;7357219;19;20312;-82
2021/11/30 05:41:34;;;;;;;5.68;4.93;;;1.40;99.90;;;;;;7389409;19;20340;-82
2021/11/30 05:44:08;;;;;;;5.38;4.78;;;1.30;99.90;;;;;;7388247;19;20371;-81
2021/11/30 05:46:56;;;;;;;5.28;4.75;;;1.30;99.90;;;;;;7314011;19;20328;-80
2021/11/30 05:49:23;;;;;;;5.88;4.72;;;1.30;99.90;;;;;;7269926;19;2004469;-81
2021/11/30 05:51:49;;;;;;;5.68;4.75;;;1.20;99.90;;;;;;7368279;19;20304;-81
2021/11/30 05:54:20;;;;;;;5.20;4.70;;;1.20;99.90;;;;;;7391648;19;20348;-82
2021/11/30 05:57:01;;;;;;;5.33;4.60;;;1.20;99.90;;;;;;7331950;19;20384;-81
2021/11/30 05:59:34;;;;;;;5.25;4.75;;;1.20;99.90;;;;;;7324204;19;20313;-81
2021/11/30 06:02:01;;;;;;;5.25;4.43;;;1.10;99.90;;;;;;7386525;19;20655;-79
2021/11/30 06:04:31;;;;;;;5.37;4.53;;;1.10;99.90;;;;;;7373952;19;20304;-80
2021/11/30 06:07:17;;;;;;;6.03;4.95;;;1.40;99.90;;;;;;7277831;19;2004432;-81
2021/11/30 06:09:43;;;;;;;5.55;4.70;;;1.10;99.90;;;;;;7369930;19;20831;-80
2021/11/30 06:12:08;;;;;;;4.63;4.18;;;1.20;99.90;;;;;;7333450;19;20313;-80
2021/11/30 06:14:34;;;;;;;5.73;5.17;;;1.10;99.90;;;;;;7371106;19;20396;-79
2021/11/30 06:17:00;;;;;;;4.80;4.30;;;1.10;99.90;;;;;;7383741;19;20332;-80
2021/11/30 06:19:25;;;;;;;5.22;4.50;;;1.10;99.90;;;;;;7379411;19;20366;-81
2021/11/30 06:21:52;;;;;;;4.37;3.83;;;1.10;99.90;;;;;;7379991;19;20308;-81
2021/11/30 06:24:17;;;;;;;6.33;4.80;;;1.10;99.90;;;;;;7381234;19;20300;-80
2021/11/30 06:26:43;;;;;;;5.33;4.83;;;1.10;99.90;;;;;;7379556;19;20356;-79
2021/11/30 06:29:09;;;;;;;4.63;4.22;;;1.10;99.90;;;;;;7380280;19;20324;-80
2021/11/30 06:31:35;;;;;;;5.03;4.53;;;1.10;99.90;;;;;;7381085;19;20320;-80
2021/11/30 06:34:00;;;;;;;4.97;4.47;;;1.10;99.90;;;;;;7382917;19;20324;-81
2021/11/30 06:36:26;;;;;;;4.43;4.03;;;1.10;99.90;;;;;;7385563;19;20331;-81
2021/11/30 06:38:57;;;;;;;5.40;4.25;;;1.10;99.90;;;;;;7382772;19;20337;-80
2021/11/30 06:41:22;;;;;;;4.63;4.23;;;1.10;99.90;;;;;;7386220;19;20305;-80
2021/11/30 06:43:48;;;;;;;6.80;5.17;;;1.10;99.90;;;;;;7385544;19;20347;-83
2021/11/30 06:46:15;;;;;;;5.15;4.65;;;1.10;99.90;;;;;;7387307;19;20325;-81
2021/11/30 06:48:41;;;;;;;7.60;5.60;;;1.10;99.90;;;;;;7387763;19;20373;-79
2021/11/30 06:51:06;;;;;;;6.10;5.40;;;1.00;99.90;;;;;;7385580;19;20335;-80
2021/11/30 06:53:34;;;;;;;5.93;4.22;;;1.00;99.90;;;;;;7385441;19;20695;-80
2021/11/30 06:55:59;;;;;;;5.40;4.90;;;1.00;99.90;;;;;;7381583;19;20333;-81
2021/11/30 06:58:25;;;;;;;4.75;4.35;;;1.10;99.90;;;;;;7385958;19;20315;-80
2021/11/30 07:00:52;;;;;;;4.35;3.95;;;1.00;99.90;;;;;;7380987;19;20305;-79
2021/11/30 07:03:20;;;;;;;5.13;4.63;;;1.00;99.90;;;;;;7381570;19;20339;-80
2021/11/30 07:05:50;;;;;;;4.88;4.38;;;1.10;99.90;;;;;;7382622;19;20319;-80
2021/11/30 07:08:19;;;;;;;6.95;5.07;;;1.10;99.90;;;;;;7382151;19;20320;-79
2021/11/30 07:11:02;;;;;;;9.43;5.95;;;1.10;99.90;;;;;;7381405;19;20313;-79
2021/11/30 07:13:32;;;;;;;5.85;4.70;;;1.20;99.90;;;;;;7381321;19;20317;-80
2021/11/30 07:16:03;;;;;;;5.47;4.97;;;1.20;99.90;;;;;;7382637;19;20420;-79
2021/11/30 07:18:29;;;;;;;5.70;5.00;;;1.20;99.90;;;;;;7385455;19;20346;-80
2021/11/30 07:20:55;;;;;;;6.20;5.15;;;1.20;99.90;;;;;;7383164;19;20491;-80
2021/11/30 07:23:21;;;;;;;4.82;4.35;;;1.30;99.90;;;;;;7380187;19;20336;-79
2021/11/30 07:25:51;;;;;;;5.07;4.50;;;1.30;99.90;;;;;;7381949;19;20846;-79
2021/11/30 07:28:22;;;;;;;4.65;4.25;;;1.30;99.90;;;;;;7385276;19;20308;-79
2021/11/30 07:30:48;;;;;;;4.82;4.32;;;1.30;99.90;;;;;;7383492;19;20315;-79
2021/11/30 07:33:13;;;;;;;5.25;4.75;;;1.40;99.90;;;;;;7382595;19;20868;-79
2021/11/30 07:35:39;;;;;;;5.20;4.70;;;1.40;99.90;;;;;;7380091;19;20745;-79
2021/11/30 07:38:05;;;;;;;4.80;4.30;;;1.40;99.90;;;;;;7382596;19;20328;-80
2021/11/30 07:40:30;;;;;;;5.90;4.70;;;1.40;99.90;;;;;;7383172;19;20308;-79
2021/11/30 07:42:56;;;;;;;4.30;3.90;;;1.50;99.90;;;;;;7380993;19;20314;-80
2021/11/30 07:45:22;;;;;;;4.27;3.83;;;1.50;99.90;;;;;;7382731;19;20384;-79
2021/11/30 07:47:47;;;;;;;4.60;4.18;;;1.50;99.90;;;;;;7384993;19;20351;-81
2021/11/30 07:50:13;;;;;;;5.33;4.60;;;1.60;99.90;;;;;;7377956;19;20331;-80
2021/11/30 07:52:40;;;;;;;4.40;4.00;;;1.60;99.90;;;;;;7386135;19;20353;-80
2021/11/30 07:55:07;;;;;;;4.90;4.32;;;1.60;99.90;;;;;;7380082;19;20387;-81
2021/11/30 07:57:33;;;;;;;5.88;4.20;;;1.60;99.90;;;;;;7382250;19;20308;-80
2021/11/30 07:59:59;;;;;;;4.73;4.17;;;1.60;99.90;;;;;;7384443;19;20344;-79
2021/11/30 08:02:24;;;;;;;4.00;3.63;;;1.60;99.90;;;;;;7388542;19;20321;-78
2021/11/30 08:04:51;;;;;;;4.43;4.00;;;1.60;99.90;;;;;;7386933;19;20695;-78
2021/11/30 08:07:17;;;;;;;4.22;3.83;;;1.60;99.90;;;;;;7389322;19;20672;-80
2021/11/30 08:09:44;;;;;;;6.50;3.90;;;1.70;99.90;;;;;;7389974;19;20317;-79
2021/11/30 08:12:09;;;;;;;3.70;3.40;;;1.60;99.90;;;;;;7390528;19;20799;-80
2021/11/30 08:14:35;;;;;;;3.70;3.40;;;1.60;99.90;;;;;;7389525;19;20317;-79
2021/11/30 08:17:01;;;;;;;3.77;3.47;;;1.60;99.90;;;;;;7388654;19;20316;-79
2021/11/30 08:19:27;;;;;;;3.75;3.45;;;1.70;99.90;;;;;;7386688;19;20443;-81
2021/11/30 08:21:53;;;;;;;4.13;3.30;;;1.70;99.90;;;;;;7391770;19;20305;-79
2021/11/30 08:24:19;;;;;;;2.93;2.73;;;1.70;99.90;;;;;;7385562;19;20416;-79
2021/11/30 08:26:45;;;;;;;3.03;2.75;;;1.70;99.90;;;;;;7385036;19;20468;-80
2021/11/30 08:29:11;;;;;;;2.88;2.67;;;1.80;99.90;;;;;;7389337;19;20312;-81
2021/11/30 08:31:37;;;;;;;2.93;2.50;;;1.80;99.90;;;;;;7388713;19;20329;-79
2021/11/30 08:34:03;;;;;;;2.72;2.53;;;1.70;99.90;;;;;;7387137;19;20324;-79
2021/11/30 08:36:29;;;;;;;2.92;2.40;;;1.70;99.90;;;;;;7388654;19;20335;-77
2021/11/30 08:38:54;;;;;;;3.00;2.30;;;1.70;99.90;;;;;;7386683;19;20308;-80
2021/11/30 08:41:21;;;;;;;2.40;2.20;;;1.60;99.90;;;;;;7385732;19;20672;-80
2021/11/30 08:43:47;;;;;;;2.33;2.17;;;1.60;99.90;;;;;;7386315;19;20320;-80
2021/11/30 08:46:13;;;;;;;2.38;2.17;;;1.70;99.90;;;;;;7387161;19;20334;-79
2021/11/30 08:48:38;;;;;;;1.77;1.67;;;1.60;99.90;;;;;;7387988;19;20313;-79
2021/11/30 08:51:04;;;;;;;2.10;2.00;;;1.60;99.90;;;;;;7386568;19;20312;-79
2021/11/30 08:53:34;;;;;;;2.20;2.10;;;1.60;99.90;;;;;;7390114;19;20470;-80
2021/11/30 08:56:00;;;;;;;2.08;1.98;;;1.60;99.90;;;;;;7386423;19;20590;-82
2021/11/30 08:58:26;;;;;;;1.90;1.80;;;1.50;99.90;;;;;;7386865;19;20337;-78
2021/11/30 09:00:51;;;;;;;2.08;1.90;;;1.50;99.90;;;;;;7387905;19;20316;-79
2021/11/30 09:03:17;;;;;;;1.90;1.80;;;1.60;99.90;;;;;;7387589;19;20399;-78
2021/11/30 09:05:43;;;;;;;1.70;1.60;;;1.60;99.90;;;;;;7385783;19;20345;-79
2021/11/30 09:08:11;;;;;;;1.75;1.65;;;1.70;99.90;;;;;;7386543;19;20313;-77
2021/11/30 09:10:37;;;;;;;1.95;1.85;;;1.70;99.90;;;;;;7384279;19;20327;-80
2021/11/30 09:13:02;;;;;;;1.77;1.67;;;1.70;99.90;;;;;;7369885;19;20783;-79
2021/11/30 09:15:28;;;;;;;1.57;1.47;;;1.70;99.90;;;;;;7386217;19;20338;-79
2021/11/30 09:17:54;;;;;;;1.50;1.40;;;1.80;99.90;;;;;;7392599;19;20324;-80
2021/11/30 09:20:20;;;;;;;1.63;1.52;;;1.70;99.90;;;;;;7395600;19;21179;-80
2021/11/30 09:22:46;;;;;;;2.00;1.80;;;1.80;99.90;;;;;;7392529;19;20913;-78
2021/11/30 09:25:12;;;;;;;1.52;1.42;;;1.80;99.90;;;;;;7385125;19;20400;-78
2021/11/30 09:27:38;;;;;;;1.47;1.37;;;1.80;99.90;;;;;;7387695;19;20352;-79
2021/11/30 09:30:05;;;;;;;1.10;1.10;;;1.80;99.90;;;;;;7388434;19;20481;-81
2021/11/30 09:32:31;;;;;;;2.00;1.40;;;1.80;99.90;;;;;;7385108;19;20416;-79
2021/11/30 09:34:57;;;;;;;1.33;1.30;;;1.80;99.90;;;;;;7386437;19;20316;-79
2021/11/30 09:37:24;;;;;;;1.52;1.42;;;1.80;99.90;;;;;;7384533;19;20342;-79
2021/11/30 09:39:50;;;;;;;1.20;1.20;;;1.80;99.90;;;;;;7386729;19;20324;-79
2021/11/30 09:42:17;;;;;;;1.40;1.30;;;1.80;99.90;;;;;;7385470;19;20317;-81
2021/11/30 09:44:45;;;;;;;0.88;0.88;;;1.90;99.90;;;;;;7385270;19;20333;-79
2021/11/30 09:47:11;;;;;;;0.80;0.80;;;1.90;99.90;;;;;;7386697;19;20337;-80
2021/11/30 09:49:36;;;;;;;1.10;1.10;;;1.80;99.90;;;;;;7384738;19;20847;-79
2021/11/30 09:52:02;;;;;;;1.17;0.98;;;1.90;99.90;;;;;;7387618;19;20367;-79
2021/11/30 09:54:28;;;;;;;0.80;0.80;;;1.90;99.90;;;;;;7364678;19;20344;-80
2021/11/30 09:56:53;;;;;;;1.33;1.23;;;1.90;99.90;;;;;;7386303;19;20315;-79
2021/11/30 09:59:19;;;;;;;0.90;0.90;;;2.00;99.90;;;;;;7381884;19;20368;-79
2021/11/30 10:01:45;;;;;;;0.80;0.80;;;2.00;99.90;;;;;;7384282;19;20324;-78
2021/11/30 10:04:10;;;;;;;0.90;0.90;;;2.10;99.90;;;;;;7380490;19;20357;-80
2021/11/30 10:06:36;;;;;;;1.03;1.03;;;2.10;99.90;;;;;;7383809;19;20455;-80
2021/11/30 10:09:02;;;;;;;1.15;0.98;;;2.10;99.90;;;;;;7379515;19;20320;-78
2021/11/30 10:11:30;;;;;;;1.00;1.00;;;2.10;99.90;;;;;;7381773;19;20349;-79
2021/11/30 10:14:11;;;;;;;0.80;0.80;;;2.20;99.90;;;;;;7381652;19;20354;-80
2021/11/30 10:16:37;;;;;;;1.00;1.00;;;2.20;99.90;;;;;;7381104;19;20348;-79
2021/11/30 10:19:03;;;;;;;0.80;0.80;;;2.20;99.90;;;;;;7363867;19;20298;-79
2021/11/30 10:21:29;;;;;;;0.90;0.90;;;2.30;99.90;;;;;;7381023;19;21047;-79
2021/11/30 10:24:02;;;;;;;0.93;0.93;;;2.30;99.90;;;;;;7381547;19;20819;-79
2021/11/30 10:26:30;;;;;;;0.80;0.80;;;2.30;99.90;;;;;;7378823;19;20365;-78
2021/11/30 10:29:07;;;;;;;0.90;0.90;;;2.30;99.90;;;;;;7380430;19;20329;-79
2021/11/30 10:31:37;;;;;;;1.23;1.10;;;2.30;99.90;;;;;;7382140;19;20325;-79
2021/11/30 10:34:17;;;;;;;0.90;0.90;;;2.40;99.90;;;;;;7383197;19;20701;-81
2021/11/30 10:37:05;;;;;;;1.30;1.15;;;2.40;99.90;;;;;;7386266;19;20348;-79
2021/11/30 10:39:33;;;;;;;0.90;0.90;;;2.50;99.90;;;;;;7278146;19;2020023;-78
2021/11/30 10:42:19;;;;;;;1.13;1.10;;;2.50;99.90;;;;;;7381787;19;20710;-79
2021/11/30 10:44:46;;;;;;;1.10;1.00;;;2.50;99.90;;;;;;7277085;19;2020257;-79
2021/11/30 10:47:19;;;;;;;0.80;0.80;;;2.50;99.90;;;;;;7380816;19;20368;-79
2021/11/30 10:49:52;;;;;;;0.88;0.88;;;2.60;99.90;;;;;;7381858;19;20357;-79
2021/11/30 10:52:20;;;;;;;0.90;0.90;;;2.60;99.90;;;;;;7381514;19;20412;-80
2021/11/30 10:54:46;;;;;;;0.90;0.90;;;2.60;99.90;;;;;;7378619;19;20331;-78
2021/11/30 10:57:11;;;;;;;0.93;0.93;;;2.70;99.90;;;;;;7380760;19;20424;-78
2021/11/30 10:59:37;;;;;;;0.82;0.82;;;2.70;99.90;;;;;;7366746;19;20348;-79
2021/11/30 11:02:03;;;;;;;0.93;0.93;;;2.70;99.90;;;;;;7381789;19;20332;-79
2021/11/30 11:04:30;;;;;;;0.93;0.93;;;2.80;99.90;;;;;;7378345;19;20726;-78
2021/11/30 11:07:08;;;;;;;0.90;0.90;;;2.80;99.90;;;;;;7379016;19;20349;-78
2021/11/30 11:09:47;;;;;;;0.90;0.90;;;2.80;99.90;;;;;;7378546;19;21032;-79
2021/11/30 11:12:13;;;;;;;3.42;0.82;;;2.90;99.90;;;;;;7379475;19;20312;-78
2021/11/30 11:14:46;;;;;;;1.60;0.90;;;2.90;99.90;;;;;;7379185;19;20312;-79
2021/11/30 11:17:24;;;;;;;0.90;0.90;;;3.00;99.90;;;;;;7380377;19;20405;-79
2021/11/30 11:19:50;;;;;;;0.70;0.70;;;3.00;99.90;;;;;;7378972;19;20296;-78
2021/11/30 11:22:19;;;;;;;0.90;0.90;;;3.00;99.90;;;;;;7383722;19;20894;-79
2021/11/30 11:24:48;;;;;;;1.00;1.00;;;3.10;99.90;;;;;;7379526;19;20300;-79
2021/11/30 11:27:15;;;;;;;0.80;0.80;;;3.10;99.90;;;;;;7382535;19;20407;-79
2021/11/30 11:29:43;;;;;;;0.90;0.90;;;3.10;99.90;;;;;;7379294;19;20431;-79
2021/11/30 11:32:09;;;;;;;0.90;0.90;;;3.10;99.90;;;;;;7379918;19;20672;-79
2021/11/30 11:34:35;;;;;;;0.90;0.90;;;3.10;99.90;;;;;;7381344;19;20308;-81
2021/11/30 11:37:03;;;;;;;0.90;0.90;;;3.20;99.90;;;;;;7381241;19;20328;-80
2021/11/30 11:39:29;;;;;;;1.38;1.08;;;3.20;99.90;;;;;;7385671;19;20333;-80
2021/11/30 11:42:00;;;;;;;0.98;0.98;;;3.20;99.90;;;;;;7388950;19;20330;-80
2021/11/30 11:44:26;;;;;;;1.75;1.65;;;3.20;99.90;;;;;;7389526;19;20320;-81
2021/11/30 11:46:52;;;;;;;0.90;0.90;;;3.30;99.90;;;;;;7391597;19;20324;-80
2021/11/30 11:49:23;;;;;;;0.75;0.75;;;3.30;99.90;;;;;;7394793;19;20353;-79
2021/11/30 11:51:50;;;;;;;1.00;1.00;;;3.30;99.90;;;;;;7400826;19;20344;-80
2021/11/30 11:54:34;;;;;;;0.80;0.80;;;3.30;99.90;;;;;;7400297;19;20321;-80
2021/11/30 11:57:10;;;;;;;1.30;1.30;;;3.40;99.90;;;;;;7395516;19;20847;-81
2021/11/30 11:59:43;;;;;;;1.42;1.33;;;3.40;99.90;;;;;;7391390;19;20392;-80
2021/11/30 12:02:26;;;;;;;0.80;0.80;;;3.30;99.90;;;;;;7390285;19;20328;-80
2021/11/30 12:04:56;;;;;;;0.90;0.90;;;3.40;99.90;;;;;;7387416;19;20313;-79
2021/11/30 12:07:23;;;;;;;0.95;0.95;;;3.40;99.90;;;;;;7386186;19;20908;-79
2021/11/30 12:09:56;;;;;;;0.90;0.90;;;3.50;99.90;;;;;;7389706;19;20419;-80
2021/11/30 12:12:22;;;;;;;0.90;0.90;;;3.60;99.90;;;;;;7390674;19;20343;-80
2021/11/30 12:14:50;;;;;;;0.88;0.88;;;3.60;99.90;;;;;;7383375;19;20337;-78
2021/11/30 12:17:23;;;;;;;0.85;0.85;;;3.70;99.90;;;;;;7383465;19;20378;-77
2021/11/30 12:20:00;;;;;;;0.80;0.80;;;3.80;99.90;;;;;;7384313;19;20755;-77
2021/11/30 12:22:46;;;;;;;0.95;0.95;;;3.80;99.90;;;;;;7281402;19;2019362;-79
2021/11/30 12:25:27;;;;;;;0.75;0.75;;;3.90;99.90;;;;;;7278674;19;2009357;-78
2021/11/30 12:27:53;;;;;;;1.00;1.00;;;3.90;99.90;;;;;;7386363;19;20337;-78
2021/11/30 12:30:43;;;;;;;0.90;0.90;;;3.90;99.90;;;;;;7383617;19;20416;-78
2021/11/30 12:33:41;;;;;;;0.98;0.98;;;3.90;99.90;;;;;;7282077;19;2009557;-78
2021/11/30 12:36:08;;;;;;;0.88;0.88;;;4.00;99.90;;;;;;7280628;19;2020021;-78
2021/11/30 12:38:37;;;;;;;1.40;0.90;;;4.10;99.90;;;;;;7383825;19;20428;-78
2021/11/30 12:41:38;;;;;;;0.95;0.90;;;4.10;99.90;;;;;;7379881;19;20340;-78
2021/11/30 12:44:15;;;;;;;0.80;0.80;;;4.10;99.90;;;;;;7258738;19;2020028;-78
2021/11/30 12:46:45;;;;;;;2.45;2.25;;;4.20;99.90;;;;;;7384659;19;20305;-79
2021/11/30 12:49:23;;;;;;;0.93;0.93;;;4.20;99.90;;;;;;7380145;19;20327;-78
2021/11/30 12:52:03;;;;;;;1.20;1.10;;;4.20;99.90;;;;;;7280267;19;2020256;-77
2021/11/30 12:54:29;;;;;;;0.98;0.98;;;4.30;99.90;;;;;;7278681;19;2020121;-77
2021/11/30 12:56:55;;;;;;;0.70;0.70;;;4.30;99.90;;;;;;7385385;19;20341;-79
2021/11/30 12:59:41;;;;;;;0.80;0.80;;;4.30;99.90;;;;;;7383792;19;20343;-78
2021/11/30 13:02:20;;;;;;;2.30;0.90;;;4.30;99.90;;;;;;7385142;19;20333;-78
2021/11/30 13:04:47;;;;;;;0.80;0.80;;;4.30;99.90;;;;;;7385493;19;20352;-78
2021/11/30 13:07:13;;;;;;;1.17;1.03;;;4.30;99.90;;;;;;7396829;19;20361;-78
2021/11/30 13:09:42;;;;;;;0.90;0.90;;;4.30;99.90;;;;;;7393191;19;20943;-78
2021/11/30 13:12:11;;;;;;;0.90;0.85;;;4.30;99.90;;;;;;7389316;19;20329;-77